sensor_id;sensor_type;location;lat;lon;timestamp;P1;durP1;ratioP1;P2;durP2;ratioP2
11960;SDS011;6040;49.358;11.140;2024-02-23T00:00:15;0.60;;;0.60;;
11960;SDS011;6040;49.358;11.140;2024-02-23T00:02:43;0.85;;;0.80;;
11960;SDS011;6040;49.358;11.140;2024-02-23T00:05:10;0.95;;;0.60;;
11960;SDS011;6040;49.358;11.140;2024-02-23T00:07:36;0.80;;;0.80;;
11960;SDS011;6040;49.358;11.140;2024-02-23T00:10:04;0.55;;;0.55;;
11960;SDS011;6040;49.358;11.140;2024-02-23T00:12:31;0.80;;;0.80;;
11960;SDS011;6040;49.358;11.140;2024-02-23T00:14:59;0.50;;;0.50;;
11960;SDS011;6040;49.358;11.140;2024-02-23T00:17:26;1.10;;;0.55;;
11960;SDS011;6040;49.358;11.140;2024-02-23T00:19:53;0.95;;;0.60;;
11960;SDS011;6040;49.358;11.140;2024-02-23T00:22:20;2.15;;;0.70;;
11960;SDS011;6040;49.358;11.140;2024-02-23T00:24:46;0.80;;;0.50;;
11960;SDS011;6040;49.358;11.140;2024-02-23T00:27:13;0.95;;;0.50;;
11960;SDS011;6040;49.358;11.140;2024-02-23T00:29:40;0.50;;;0.50;;
11960;SDS011;6040;49.358;11.140;2024-02-23T00:32:09;0.50;;;0.40;;
11960;SDS011;6040;49.358;11.140;2024-02-23T00:34:36;0.50;;;0.50;;
11960;SDS011;6040;49.358;11.140;2024-02-23T00:37:04;0.60;;;0.60;;
11960;SDS011;6040;49.358;11.140;2024-02-23T00:39:33;0.40;;;0.40;;
11960;SDS011;6040;49.358;11.140;2024-02-23T00:41:59;0.80;;;0.55;;
11960;SDS011;6040;49.358;11.140;2024-02-23T00:44:26;0.43;;;0.43;;
11960;SDS011;6040;49.358;11.140;2024-02-23T00:46:53;1.02;;;0.40;;
11960;SDS011;6040;49.358;11.140;2024-02-23T00:49:21;0.38;;;0.38;;
11960;SDS011;6040;49.358;11.140;2024-02-23T00:51:48;0.93;;;0.60;;
11960;SDS011;6040;49.358;11.140;2024-02-23T00:54:15;0.70;;;0.40;;
11960;SDS011;6040;49.358;11.140;2024-02-23T00:56:41;0.43;;;0.32;;
11960;SDS011;6040;49.358;11.140;2024-02-23T00:59:08;0.30;;;0.30;;
11960;SDS011;6040;49.358;11.140;2024-02-23T01:01:35;0.80;;;0.30;;
11960;SDS011;6040;49.358;11.140;2024-02-23T01:04:02;1.20;;;0.47;;
11960;SDS011;6040;49.358;11.140;2024-02-23T01:06:30;0.30;;;0.30;;
11960;SDS011;6040;49.358;11.140;2024-02-23T01:08:57;0.40;;;0.30;;
11960;SDS011;6040;49.358;11.140;2024-02-23T01:11:24;0.77;;;0.30;;
11960;SDS011;6040;49.358;11.140;2024-02-23T01:13:50;1.00;;;0.30;;
11960;SDS011;6040;49.358;11.140;2024-02-23T01:16:17;1.00;;;0.47;;
11960;SDS011;6040;49.358;11.140;2024-02-23T01:18:44;0.40;;;0.20;;
11960;SDS011;6040;49.358;11.140;2024-02-23T01:21:11;0.47;;;0.32;;
11960;SDS011;6040;49.358;11.140;2024-02-23T01:23:39;0.97;;;0.50;;
11960;SDS011;6040;49.358;11.140;2024-02-23T01:26:06;0.70;;;0.30;;
11960;SDS011;6040;49.358;11.140;2024-02-23T01:28:32;0.60;;;0.40;;
11960;SDS011;6040;49.358;11.140;2024-02-23T01:30:59;0.55;;;0.30;;
11960;SDS011;6040;49.358;11.140;2024-02-23T01:33:26;0.93;;;0.47;;
11960;SDS011;6040;49.358;11.140;2024-02-23T01:35:53;1.00;;;0.50;;
11960;SDS011;6040;49.358;11.140;2024-02-23T01:38:21;2.95;;;0.50;;
11960;SDS011;6040;49.358;11.140;2024-02-23T01:40:51;1.20;;;0.40;;
11960;SDS011;6040;49.358;11.140;2024-02-23T01:43:18;1.08;;;0.55;;
11960;SDS011;6040;49.358;11.140;2024-02-23T01:45:44;0.77;;;0.40;;
11960;SDS011;6040;49.358;11.140;2024-02-23T01:48:11;0.98;;;0.40;;
11960;SDS011;6040;49.358;11.140;2024-02-23T01:50:38;1.35;;;0.60;;
11960;SDS011;6040;49.358;11.140;2024-02-23T01:53:06;0.85;;;0.57;;
11960;SDS011;6040;49.358;11.140;2024-02-23T01:55:32;0.90;;;0.50;;
11960;SDS011;6040;49.358;11.140;2024-02-23T01:58:01;0.85;;;0.45;;
11960;SDS011;6040;49.358;11.140;2024-02-23T02:00:28;0.57;;;0.57;;
11960;SDS011;6040;49.358;11.140;2024-02-23T02:02:56;1.88;;;0.47;;
11960;SDS011;6040;49.358;11.140;2024-02-23T02:05:23;0.70;;;0.50;;
11960;SDS011;6040;49.358;11.140;2024-02-23T02:07:51;0.80;;;0.52;;
11960;SDS011;6040;49.358;11.140;2024-02-23T02:10:24;0.95;;;0.50;;
11960;SDS011;6040;49.358;11.140;2024-02-23T02:12:51;0.47;;;0.45;;
11960;SDS011;6040;49.358;11.140;2024-02-23T02:15:19;1.55;;;0.70;;
11960;SDS011;6040;49.358;11.140;2024-02-23T02:17:47;1.75;;;0.60;;
11960;SDS011;6040;49.358;11.140;2024-02-23T02:20:14;2.28;;;0.57;;
11960;SDS011;6040;49.358;11.140;2024-02-23T02:22:41;1.17;;;0.60;;
11960;SDS011;6040;49.358;11.140;2024-02-23T02:25:07;1.30;;;0.55;;
11960;SDS011;6040;49.358;11.140;2024-02-23T02:27:34;0.80;;;0.60;;
11960;SDS011;6040;49.358;11.140;2024-02-23T02:30:01;1.42;;;0.63;;
11960;SDS011;6040;49.358;11.140;2024-02-23T02:32:30;1.50;;;0.70;;
11960;SDS011;6040;49.358;11.140;2024-02-23T02:34:57;0.73;;;0.70;;
11960;SDS011;6040;49.358;11.140;2024-02-23T02:37:24;2.05;;;0.60;;
11960;SDS011;6040;49.358;11.140;2024-02-23T02:39:50;1.88;;;0.70;;
11960;SDS011;6040;49.358;11.140;2024-02-23T02:42:17;0.50;;;0.50;;
11960;SDS011;6040;49.358;11.140;2024-02-23T02:44:44;1.30;;;0.70;;
11960;SDS011;6040;49.358;11.140;2024-02-23T02:47:11;1.40;;;0.70;;
11960;SDS011;6040;49.358;11.140;2024-02-23T02:49:40;1.35;;;0.70;;
11960;SDS011;6040;49.358;11.140;2024-02-23T02:52:07;1.42;;;0.77;;
11960;SDS011;6040;49.358;11.140;2024-02-23T02:54:34;1.40;;;0.75;;
11960;SDS011;6040;49.358;11.140;2024-02-23T02:57:01;1.30;;;0.80;;
11960;SDS011;6040;49.358;11.140;2024-02-23T02:59:28;1.27;;;0.63;;
11960;SDS011;6040;49.358;11.140;2024-02-23T03:01:54;1.35;;;0.73;;
11960;SDS011;6040;49.358;11.140;2024-02-23T03:04:22;0.80;;;0.60;;
11960;SDS011;6040;49.358;11.140;2024-02-23T03:06:50;3.35;;;0.80;;
11960;SDS011;6040;49.358;11.140;2024-02-23T03:09:17;2.25;;;0.80;;
11960;SDS011;6040;49.358;11.140;2024-02-23T03:11:44;2.33;;;0.73;;
11960;SDS011;6040;49.358;11.140;2024-02-23T03:14:10;0.73;;;0.68;;
11960;SDS011;6040;49.358;11.140;2024-02-23T03:16:37;1.23;;;0.70;;
11960;SDS011;6040;49.358;11.140;2024-02-23T03:19:04;1.67;;;0.85;;
11960;SDS011;6040;49.358;11.140;2024-02-23T03:21:33;3.90;;;0.95;;
11960;SDS011;6040;49.358;11.140;2024-02-23T03:24:01;2.15;;;0.80;;
11960;SDS011;6040;49.358;11.140;2024-02-23T03:26:28;1.85;;;0.80;;
11960;SDS011;6040;49.358;11.140;2024-02-23T03:28:55;2.45;;;0.93;;
11960;SDS011;6040;49.358;11.140;2024-02-23T03:31:21;1.77;;;0.88;;
11960;SDS011;6040;49.358;11.140;2024-02-23T03:33:48;1.52;;;0.80;;
11960;SDS011;6040;49.358;11.140;2024-02-23T03:36:15;1.52;;;0.82;;
11960;SDS011;6040;49.358;11.140;2024-02-23T03:38:42;1.70;;;0.70;;
11960;SDS011;6040;49.358;11.140;2024-02-23T03:41:10;1.60;;;0.88;;
11960;SDS011;6040;49.358;11.140;2024-02-23T03:43:37;1.73;;;0.75;;
11960;SDS011;6040;49.358;11.140;2024-02-23T03:46:05;2.90;;;1.00;;
11960;SDS011;6040;49.358;11.140;2024-02-23T03:48:32;3.75;;;1.15;;
11960;SDS011;6040;49.358;11.140;2024-02-23T03:51:01;2.20;;;0.75;;
11960;SDS011;6040;49.358;11.140;2024-02-23T03:53:29;3.50;;;1.00;;
11960;SDS011;6040;49.358;11.140;2024-02-23T03:55:56;2.22;;;0.82;;
11960;SDS011;6040;49.358;11.140;2024-02-23T03:58:25;2.55;;;0.90;;
11960;SDS011;6040;49.358;11.140;2024-02-23T04:00:51;2.33;;;0.90;;
11960;SDS011;6040;49.358;11.140;2024-02-23T04:03:18;2.15;;;0.82;;
11960;SDS011;6040;49.358;11.140;2024-02-23T04:05:45;4.70;;;1.10;;
11960;SDS011;6040;49.358;11.140;2024-02-23T04:08:12;3.22;;;0.98;;
11960;SDS011;6040;49.358;11.140;2024-02-23T04:10:39;2.73;;;1.00;;
11960;SDS011;6040;49.358;11.140;2024-02-23T04:13:05;2.22;;;1.00;;
11960;SDS011;6040;49.358;11.140;2024-02-23T04:15:34;1.70;;;0.90;;
11960;SDS011;6040;49.358;11.140;2024-02-23T04:18:00;1.90;;;0.80;;
11960;SDS011;6040;49.358;11.140;2024-02-23T04:20:28;3.35;;;1.30;;
11960;SDS011;6040;49.358;11.140;2024-02-23T04:22:55;3.35;;;1.15;;
11960;SDS011;6040;49.358;11.140;2024-02-23T04:25:21;4.20;;;1.05;;
11960;SDS011;6040;49.358;11.140;2024-02-23T04:27:48;3.47;;;0.95;;
11960;SDS011;6040;49.358;11.140;2024-02-23T04:30:15;4.43;;;1.27;;
11960;SDS011;6040;49.358;11.140;2024-02-23T04:32:43;3.35;;;1.02;;
11960;SDS011;6040;49.358;11.140;2024-02-23T04:35:10;3.53;;;1.10;;
11960;SDS011;6040;49.358;11.140;2024-02-23T04:37:37;3.45;;;1.05;;
11960;SDS011;6040;49.358;11.140;2024-02-23T04:40:04;4.82;;;1.38;;
11960;SDS011;6040;49.358;11.140;2024-02-23T04:42:32;2.88;;;1.20;;
11960;SDS011;6040;49.358;11.140;2024-02-23T04:44:58;4.85;;;1.10;;
11960;SDS011;6040;49.358;11.140;2024-02-23T04:47:26;3.83;;;1.25;;
11960;SDS011;6040;49.358;11.140;2024-02-23T04:49:54;3.35;;;1.15;;
11960;SDS011;6040;49.358;11.140;2024-02-23T04:52:20;2.20;;;1.00;;
11960;SDS011;6040;49.358;11.140;2024-02-23T04:54:47;5.15;;;1.30;;
11960;SDS011;6040;49.358;11.140;2024-02-23T04:57:14;3.15;;;1.20;;
11960;SDS011;6040;49.358;11.140;2024-02-23T04:59:41;4.25;;;1.38;;
11960;SDS011;6040;49.358;11.140;2024-02-23T05:02:08;3.47;;;1.30;;
11960;SDS011;6040;49.358;11.140;2024-02-23T05:04:34;3.77;;;1.40;;
11960;SDS011;6040;49.358;11.140;2024-02-23T05:07:03;4.85;;;1.42;;
11960;SDS011;6040;49.358;11.140;2024-02-23T05:09:30;2.58;;;1.10;;
11960;SDS011;6040;49.358;11.140;2024-02-23T05:11:57;4.28;;;1.30;;
11960;SDS011;6040;49.358;11.140;2024-02-23T05:14:24;2.70;;;1.30;;
11960;SDS011;6040;49.358;11.140;2024-02-23T05:16:51;3.25;;;1.20;;
11960;SDS011;6040;49.358;11.140;2024-02-23T05:19:16;3.30;;;1.30;;
11960;SDS011;6040;49.358;11.140;2024-02-23T05:21:43;3.40;;;1.20;;
11960;SDS011;6040;49.358;11.140;2024-02-23T05:24:12;3.38;;;1.13;;
11960;SDS011;6040;49.358;11.140;2024-02-23T05:26:38;4.17;;;1.40;;
11960;SDS011;6040;49.358;11.140;2024-02-23T05:29:06;4.03;;;1.55;;
11960;SDS011;6040;49.358;11.140;2024-02-23T05:31:45;4.15;;;1.73;;
11960;SDS011;6040;49.358;11.140;2024-02-23T05:34:13;2.92;;;1.70;;
11960;SDS011;6040;49.358;11.140;2024-02-23T05:36:40;3.60;;;1.90;;
11960;SDS011;6040;49.358;11.140;2024-02-23T05:39:07;3.20;;;1.70;;
11960;SDS011;6040;49.358;11.140;2024-02-23T05:41:36;3.92;;;1.90;;
11960;SDS011;6040;49.358;11.140;2024-02-23T05:44:03;3.17;;;1.50;;
11960;SDS011;6040;49.358;11.140;2024-02-23T05:46:30;5.60;;;1.90;;
11960;SDS011;6040;49.358;11.140;2024-02-23T05:48:58;3.20;;;1.55;;
11960;SDS011;6040;49.358;11.140;2024-02-23T05:51:25;2.63;;;1.23;;
11960;SDS011;6040;49.358;11.140;2024-02-23T05:53:54;1.25;;;1.08;;
11960;SDS011;6040;49.358;11.140;2024-02-23T05:56:21;3.83;;;1.30;;
11960;SDS011;6040;49.358;11.140;2024-02-23T05:58:50;3.15;;;1.00;;
11960;SDS011;6040;49.358;11.140;2024-02-23T06:01:17;3.45;;;1.15;;
11960;SDS011;6040;49.358;11.140;2024-02-23T06:03:44;3.97;;;1.33;;
11960;SDS011;6040;49.358;11.140;2024-02-23T06:06:11;3.53;;;1.40;;
11960;SDS011;6040;49.358;11.140;2024-02-23T06:08:39;2.55;;;1.30;;
11960;SDS011;6040;49.358;11.140;2024-02-23T06:11:06;3.17;;;1.30;;
11960;SDS011;6040;49.358;11.140;2024-02-23T06:13:35;3.38;;;1.42;;
11960;SDS011;6040;49.358;11.140;2024-02-23T06:16:03;2.23;;;1.20;;
11960;SDS011;6040;49.358;11.140;2024-02-23T06:18:30;2.97;;;1.10;;
11960;SDS011;6040;49.358;11.140;2024-02-23T06:20:57;2.88;;;1.20;;
11960;SDS011;6040;49.358;11.140;2024-02-23T06:23:24;2.55;;;1.08;;
11960;SDS011;6040;49.358;11.140;2024-02-23T06:25:51;2.83;;;1.10;;
11960;SDS011;6040;49.358;11.140;2024-02-23T06:28:18;3.70;;;1.50;;
11960;SDS011;6040;49.358;11.140;2024-02-23T06:30:44;3.33;;;1.67;;
11960;SDS011;6040;49.358;11.140;2024-02-23T06:33:12;2.83;;;1.40;;
11960;SDS011;6040;49.358;11.140;2024-02-23T06:35:39;3.55;;;1.50;;
11960;SDS011;6040;49.358;11.140;2024-02-23T06:38:06;4.57;;;1.60;;
11960;SDS011;6040;49.358;11.140;2024-02-23T06:40:34;2.85;;;1.30;;
11960;SDS011;6040;49.358;11.140;2024-02-23T06:43:01;3.97;;;1.52;;
11960;SDS011;6040;49.358;11.140;2024-02-23T06:45:28;4.97;;;2.30;;
11960;SDS011;6040;49.358;11.140;2024-02-23T06:47:55;7.77;;;3.50;;
11960;SDS011;6040;49.358;11.140;2024-02-23T06:50:23;8.30;;;3.88;;
11960;SDS011;6040;49.358;11.140;2024-02-23T06:52:50;8.45;;;4.75;;
11960;SDS011;6040;49.358;11.140;2024-02-23T06:55:17;5.15;;;3.47;;
11960;SDS011;6040;49.358;11.140;2024-02-23T06:57:44;5.85;;;3.53;;
11960;SDS011;6040;49.358;11.140;2024-02-23T07:00:12;4.55;;;2.38;;
11960;SDS011;6040;49.358;11.140;2024-02-23T07:02:39;7.22;;;3.70;;
11960;SDS011;6040;49.358;11.140;2024-02-23T07:05:06;5.43;;;3.25;;
11960;SDS011;6040;49.358;11.140;2024-02-23T07:07:35;7.43;;;2.85;;
11960;SDS011;6040;49.358;11.140;2024-02-23T07:10:01;8.60;;;3.00;;
11960;SDS011;6040;49.358;11.140;2024-02-23T07:12:28;6.60;;;2.53;;
11960;SDS011;6040;49.358;11.140;2024-02-23T07:14:55;7.35;;;2.08;;
11960;SDS011;6040;49.358;11.140;2024-02-23T07:17:22;12.60;;;2.13;;
11960;SDS011;6040;49.358;11.140;2024-02-23T07:19:49;5.63;;;1.83;;
11960;SDS011;6040;49.358;11.140;2024-02-23T07:22:17;8.65;;;3.55;;
11960;SDS011;6040;49.358;11.140;2024-02-23T07:24:46;7.30;;;4.90;;
11960;SDS011;6040;49.358;11.140;2024-02-23T07:27:14;7.05;;;3.72;;
11960;SDS011;6040;49.358;11.140;2024-02-23T07:29:41;4.68;;;1.83;;
11960;SDS011;6040;49.358;11.140;2024-02-23T07:32:08;2.13;;;1.30;;
11960;SDS011;6040;49.358;11.140;2024-02-23T07:34:35;3.35;;;1.40;;
11960;SDS011;6040;49.358;11.140;2024-02-23T07:37:02;3.28;;;1.30;;
11960;SDS011;6040;49.358;11.140;2024-02-23T07:39:29;3.25;;;1.15;;
11960;SDS011;6040;49.358;11.140;2024-02-23T07:41:57;2.58;;;1.10;;
11960;SDS011;6040;49.358;11.140;2024-02-23T07:44:24;2.53;;;1.27;;
11960;SDS011;6040;49.358;11.140;2024-02-23T07:46:51;1.83;;;1.13;;
11960;SDS011;6040;49.358;11.140;2024-02-23T07:49:19;1.95;;;1.20;;
11960;SDS011;6040;49.358;11.140;2024-02-23T07:51:47;2.42;;;1.00;;
11960;SDS011;6040;49.358;11.140;2024-02-23T07:54:14;2.30;;;1.10;;
11960;SDS011;6040;49.358;11.140;2024-02-23T07:56:41;3.05;;;1.20;;
11960;SDS011;6040;49.358;11.140;2024-02-23T07:59:09;2.67;;;1.10;;
11960;SDS011;6040;49.358;11.140;2024-02-23T08:01:36;3.75;;;1.33;;
11960;SDS011;6040;49.358;11.140;2024-02-23T08:04:05;4.30;;;1.25;;
11960;SDS011;6040;49.358;11.140;2024-02-23T08:06:32;2.88;;;1.30;;
11960;SDS011;6040;49.358;11.140;2024-02-23T08:08:58;3.23;;;1.20;;
11960;SDS011;6040;49.358;11.140;2024-02-23T08:11:25;2.53;;;1.20;;
11960;SDS011;6040;49.358;11.140;2024-02-23T08:13:52;2.97;;;1.40;;
11960;SDS011;6040;49.358;11.140;2024-02-23T08:16:20;2.17;;;1.10;;
11960;SDS011;6040;49.358;11.140;2024-02-23T08:18:47;2.47;;;1.33;;
11960;SDS011;6040;49.358;11.140;2024-02-23T08:21:14;3.13;;;1.42;;
11960;SDS011;6040;49.358;11.140;2024-02-23T08:23:41;2.33;;;1.38;;
11960;SDS011;6040;49.358;11.140;2024-02-23T08:26:07;5.13;;;1.50;;
11960;SDS011;6040;49.358;11.140;2024-02-23T08:28:35;2.30;;;1.30;;
11960;SDS011;6040;49.358;11.140;2024-02-23T08:31:02;2.50;;;1.30;;
11960;SDS011;6040;49.358;11.140;2024-02-23T08:33:30;2.17;;;1.20;;
11960;SDS011;6040;49.358;11.140;2024-02-23T08:35:57;2.75;;;1.20;;
11960;SDS011;6040;49.358;11.140;2024-02-23T08:38:24;3.85;;;1.30;;
11960;SDS011;6040;49.358;11.140;2024-02-23T08:40:50;1.60;;;1.20;;
11960;SDS011;6040;49.358;11.140;2024-02-23T08:43:17;4.85;;;1.38;;
11960;SDS011;6040;49.358;11.140;2024-02-23T08:45:45;2.00;;;1.30;;
11960;SDS011;6040;49.358;11.140;2024-02-23T08:48:11;3.13;;;1.48;;
11960;SDS011;6040;49.358;11.140;2024-02-23T08:50:41;2.92;;;1.23;;
11960;SDS011;6040;49.358;11.140;2024-02-23T08:53:08;2.03;;;1.00;;
11960;SDS011;6040;49.358;11.140;2024-02-23T08:55:35;4.97;;;1.57;;
11960;SDS011;6040;49.358;11.140;2024-02-23T08:58:02;2.28;;;1.33;;
11960;SDS011;6040;49.358;11.140;2024-02-23T09:00:30;3.00;;;1.63;;
11960;SDS011;6040;49.358;11.140;2024-02-23T09:02:57;3.53;;;1.85;;
11960;SDS011;6040;49.358;11.140;2024-02-23T09:05:24;2.72;;;1.17;;
11960;SDS011;6040;49.358;11.140;2024-02-23T09:07:53;3.28;;;1.48;;
11960;SDS011;6040;49.358;11.140;2024-02-23T09:10:20;2.08;;;1.20;;
11960;SDS011;6040;49.358;11.140;2024-02-23T09:12:47;2.40;;;1.15;;
11960;SDS011;6040;49.358;11.140;2024-02-23T09:15:13;2.38;;;1.08;;
11960;SDS011;6040;49.358;11.140;2024-02-23T09:17:40;2.30;;;1.10;;
11960;SDS011;6040;49.358;11.140;2024-02-23T09:20:08;5.13;;;1.42;;
11960;SDS011;6040;49.358;11.140;2024-02-23T09:22:36;2.05;;;1.10;;
11960;SDS011;6040;49.358;11.140;2024-02-23T09:25:04;3.33;;;1.20;;
11960;SDS011;6040;49.358;11.140;2024-02-23T09:27:33;2.20;;;1.10;;
11960;SDS011;6040;49.358;11.140;2024-02-23T09:30:01;2.00;;;1.10;;
11960;SDS011;6040;49.358;11.140;2024-02-23T09:32:29;2.70;;;1.02;;
11960;SDS011;6040;49.358;11.140;2024-02-23T09:34:57;2.35;;;0.88;;
11960;SDS011;6040;49.358;11.140;2024-02-23T09:37:24;1.67;;;1.00;;
11960;SDS011;6040;49.358;11.140;2024-02-23T09:39:51;2.38;;;1.17;;
11960;SDS011;6040;49.358;11.140;2024-02-23T09:42:19;2.38;;;1.00;;
11960;SDS011;6040;49.358;11.140;2024-02-23T09:44:50;2.65;;;1.00;;
11960;SDS011;6040;49.358;11.140;2024-02-23T09:47:25;2.38;;;1.20;;
11960;SDS011;6040;49.358;11.140;2024-02-23T09:49:53;3.17;;;1.00;;
11960;SDS011;6040;49.358;11.140;2024-02-23T09:52:21;2.57;;;1.20;;
11960;SDS011;6040;49.358;11.140;2024-02-23T09:54:48;2.95;;;1.30;;
11960;SDS011;6040;49.358;11.140;2024-02-23T09:57:15;2.15;;;1.30;;
11960;SDS011;6040;49.358;11.140;2024-02-23T09:59:44;2.50;;;1.35;;
11960;SDS011;6040;49.358;11.140;2024-02-23T10:02:14;1.98;;;0.90;;
11960;SDS011;6040;49.358;11.140;2024-02-23T10:04:42;2.53;;;1.30;;
11960;SDS011;6040;49.358;11.140;2024-02-23T10:07:09;4.45;;;1.40;;
11960;SDS011;6040;49.358;11.140;2024-02-23T10:09:36;3.17;;;1.30;;
11960;SDS011;6040;49.358;11.140;2024-02-23T10:12:03;2.40;;;1.30;;
11960;SDS011;6040;49.358;11.140;2024-02-23T10:14:31;2.35;;;1.15;;
11960;SDS011;6040;49.358;11.140;2024-02-23T10:16:59;2.45;;;1.20;;
11960;SDS011;6040;49.358;11.140;2024-02-23T10:19:27;2.10;;;1.20;;
11960;SDS011;6040;49.358;11.140;2024-02-23T10:21:54;3.20;;;1.50;;
11960;SDS011;6040;49.358;11.140;2024-02-23T10:24:22;2.58;;;1.70;;
11960;SDS011;6040;49.358;11.140;2024-02-23T10:26:50;2.53;;;1.40;;
11960;SDS011;6040;49.358;11.140;2024-02-23T10:29:17;2.33;;;1.10;;
11960;SDS011;6040;49.358;11.140;2024-02-23T10:31:44;1.48;;;1.00;;
11960;SDS011;6040;49.358;11.140;2024-02-23T10:34:17;2.63;;;1.30;;
11960;SDS011;6040;49.358;11.140;2024-02-23T10:36:45;3.42;;;1.30;;
11960;SDS011;6040;49.358;11.140;2024-02-23T10:39:15;2.30;;;1.10;;
11960;SDS011;6040;49.358;11.140;2024-02-23T10:41:46;2.80;;;1.40;;
11960;SDS011;6040;49.358;11.140;2024-02-23T10:44:18;2.97;;;1.30;;
11960;SDS011;6040;49.358;11.140;2024-02-23T10:46:45;2.63;;;1.20;;
11960;SDS011;6040;49.358;11.140;2024-02-23T10:49:12;2.92;;;1.20;;
11960;SDS011;6040;49.358;11.140;2024-02-23T10:51:45;2.10;;;1.02;;
11960;SDS011;6040;49.358;11.140;2024-02-23T10:54:14;3.13;;;1.08;;
11960;SDS011;6040;49.358;11.140;2024-02-23T10:56:44;2.05;;;1.10;;
11960;SDS011;6040;49.358;11.140;2024-02-23T10:59:13;2.85;;;1.10;;
11960;SDS011;6040;49.358;11.140;2024-02-23T11:01:42;3.10;;;1.08;;
11960;SDS011;6040;49.358;11.140;2024-02-23T11:04:09;2.35;;;1.30;;
11960;SDS011;6040;49.358;11.140;2024-02-23T11:06:38;2.77;;;1.00;;
11960;SDS011;6040;49.358;11.140;2024-02-23T11:09:05;2.72;;;1.00;;
11960;SDS011;6040;49.358;11.140;2024-02-23T11:11:33;2.47;;;1.20;;
11960;SDS011;6040;49.358;11.140;2024-02-23T11:14:02;2.63;;;1.10;;
11960;SDS011;6040;49.358;11.140;2024-02-23T11:16:29;2.85;;;1.40;;
11960;SDS011;6040;49.358;11.140;2024-02-23T11:19:05;2.70;;;1.30;;
11960;SDS011;6040;49.358;11.140;2024-02-23T11:21:33;2.58;;;1.40;;
11960;SDS011;6040;49.358;11.140;2024-02-23T11:24:03;3.67;;;2.20;;
11960;SDS011;6040;49.358;11.140;2024-02-23T11:26:31;3.08;;;1.40;;
11960;SDS011;6040;49.358;11.140;2024-02-23T11:28:58;3.30;;;1.38;;
11960;SDS011;6040;49.358;11.140;2024-02-23T11:31:29;3.70;;;1.48;;
11960;SDS011;6040;49.358;11.140;2024-02-23T11:33:56;1.83;;;1.02;;
11960;SDS011;6040;49.358;11.140;2024-02-23T11:36:23;1.60;;;1.17;;
11960;SDS011;6040;49.358;11.140;2024-02-23T11:38:53;2.33;;;1.30;;
11960;SDS011;6040;49.358;11.140;2024-02-23T11:41:23;2.23;;;1.10;;
11960;SDS011;6040;49.358;11.140;2024-02-23T11:43:51;1.95;;;1.30;;
11960;SDS011;6040;49.358;11.140;2024-02-23T11:46:19;3.22;;;1.27;;
11960;SDS011;6040;49.358;11.140;2024-02-23T11:48:46;2.72;;;1.17;;
11960;SDS011;6040;49.358;11.140;2024-02-23T11:54:09;2.55;;;0.98;;
11960;SDS011;6040;49.358;11.140;2024-02-23T11:56:37;2.70;;;0.90;;
11960;SDS011;6040;49.358;11.140;2024-02-23T11:59:06;2.50;;;1.00;;
11960;SDS011;6040;49.358;11.140;2024-02-23T12:01:34;1.40;;;1.02;;
11960;SDS011;6040;49.358;11.140;2024-02-23T12:04:01;1.95;;;1.10;;
11960;SDS011;6040;49.358;11.140;2024-02-23T12:06:27;1.88;;;1.17;;
11960;SDS011;6040;49.358;11.140;2024-02-23T12:08:57;1.73;;;1.00;;
11960;SDS011;6040;49.358;11.140;2024-02-23T12:11:24;2.10;;;1.10;;
11960;SDS011;6040;49.358;11.140;2024-02-23T12:13:53;2.22;;;1.10;;
11960;SDS011;6040;49.358;11.140;2024-02-23T12:16:22;2.33;;;1.00;;
11960;SDS011;6040;49.358;11.140;2024-02-23T12:18:52;2.22;;;1.05;;
11960;SDS011;6040;49.358;11.140;2024-02-23T12:21:20;3.28;;;1.13;;
11960;SDS011;6040;49.358;11.140;2024-02-23T12:23:48;2.55;;;1.40;;
11960;SDS011;6040;49.358;11.140;2024-02-23T12:26:16;1.50;;;1.33;;
11960;SDS011;6040;49.358;11.140;2024-02-23T12:28:44;2.58;;;1.48;;
11960;SDS011;6040;49.358;11.140;2024-02-23T12:31:13;2.03;;;1.40;;
11960;SDS011;6040;49.358;11.140;2024-02-23T12:33:40;4.57;;;1.48;;
11960;SDS011;6040;49.358;11.140;2024-02-23T12:36:07;1.52;;;1.05;;
11960;SDS011;6040;49.358;11.140;2024-02-23T12:38:35;1.93;;;1.10;;
11960;SDS011;6040;49.358;11.140;2024-02-23T12:41:02;2.13;;;1.10;;
11960;SDS011;6040;49.358;11.140;2024-02-23T12:43:30;1.40;;;1.00;;
11960;SDS011;6040;49.358;11.140;2024-02-23T12:45:57;1.13;;;1.00;;
11960;SDS011;6040;49.358;11.140;2024-02-23T12:48:26;2.30;;;1.13;;
11960;SDS011;6040;49.358;11.140;2024-02-23T12:50:53;2.40;;;1.05;;
11960;SDS011;6040;49.358;11.140;2024-02-23T12:53:30;2.38;;;1.10;;
11960;SDS011;6040;49.358;11.140;2024-02-23T12:55:59;3.97;;;1.20;;
11960;SDS011;6040;49.358;11.140;2024-02-23T12:58:27;1.58;;;1.30;;
11960;SDS011;6040;49.358;11.140;2024-02-23T13:00:54;2.15;;;1.30;;
11960;SDS011;6040;49.358;11.140;2024-02-23T13:03:21;2.42;;;0.98;;
11960;SDS011;6040;49.358;11.140;2024-02-23T13:05:49;2.65;;;1.00;;
11960;SDS011;6040;49.358;11.140;2024-02-23T13:08:16;4.65;;;1.20;;
11960;SDS011;6040;49.358;11.140;2024-02-23T13:10:43;2.33;;;1.17;;
11960;SDS011;6040;49.358;11.140;2024-02-23T13:13:10;3.83;;;1.15;;
11960;SDS011;6040;49.358;11.140;2024-02-23T13:15:38;2.67;;;1.30;;
11960;SDS011;6040;49.358;11.140;2024-02-23T13:18:05;2.65;;;1.48;;
11960;SDS011;6040;49.358;11.140;2024-02-23T13:20:32;2.50;;;1.20;;
11960;SDS011;6040;49.358;11.140;2024-02-23T13:23:00;2.88;;;1.02;;
11960;SDS011;6040;49.358;11.140;2024-02-23T13:25:27;3.17;;;1.10;;
11960;SDS011;6040;49.358;11.140;2024-02-23T13:27:54;2.30;;;1.10;;
11960;SDS011;6040;49.358;11.140;2024-02-23T13:30:21;3.03;;;1.10;;
11960;SDS011;6040;49.358;11.140;2024-02-23T13:32:48;1.50;;;1.07;;
11960;SDS011;6040;49.358;11.140;2024-02-23T13:35:15;1.85;;;0.98;;
11960;SDS011;6040;49.358;11.140;2024-02-23T13:37:42;2.25;;;1.10;;
11960;SDS011;6040;49.358;11.140;2024-02-23T13:40:10;1.83;;;1.10;;
11960;SDS011;6040;49.358;11.140;2024-02-23T13:42:37;2.22;;;1.27;;
11960;SDS011;6040;49.358;11.140;2024-02-23T13:45:05;2.37;;;1.00;;
11960;SDS011;6040;49.358;11.140;2024-02-23T13:47:33;1.88;;;1.20;;
11960;SDS011;6040;49.358;11.140;2024-02-23T13:50:00;2.60;;;1.25;;
11960;SDS011;6040;49.358;11.140;2024-02-23T13:52:27;2.08;;;1.15;;
11960;SDS011;6040;49.358;11.140;2024-02-23T13:54:55;2.10;;;1.30;;
11960;SDS011;6040;49.358;11.140;2024-02-23T13:57:23;3.33;;;1.42;;
11960;SDS011;6040;49.358;11.140;2024-02-23T13:59:50;2.10;;;1.40;;
11960;SDS011;6040;49.358;11.140;2024-02-23T14:02:24;1.97;;;1.37;;
11960;SDS011;6040;49.358;11.140;2024-02-23T14:04:52;2.47;;;1.60;;
11960;SDS011;6040;49.358;11.140;2024-02-23T14:07:20;3.25;;;1.70;;
11960;SDS011;6040;49.358;11.140;2024-02-23T14:09:47;3.17;;;1.40;;
11960;SDS011;6040;49.358;11.140;2024-02-23T14:12:13;2.10;;;1.42;;
11960;SDS011;6040;49.358;11.140;2024-02-23T14:14:42;2.25;;;1.30;;
11960;SDS011;6040;49.358;11.140;2024-02-23T14:17:09;2.47;;;1.47;;
11960;SDS011;6040;49.358;11.140;2024-02-23T14:19:36;2.75;;;1.30;;
11960;SDS011;6040;49.358;11.140;2024-02-23T14:22:03;2.90;;;1.30;;
11960;SDS011;6040;49.358;11.140;2024-02-23T14:24:30;2.20;;;1.40;;
11960;SDS011;6040;49.358;11.140;2024-02-23T14:26:57;3.15;;;1.80;;
11960;SDS011;6040;49.358;11.140;2024-02-23T14:29:24;3.97;;;1.52;;
11960;SDS011;6040;49.358;11.140;2024-02-23T14:31:52;1.58;;;1.05;;
11960;SDS011;6040;49.358;11.140;2024-02-23T14:34:19;2.38;;;1.45;;
11960;SDS011;6040;49.358;11.140;2024-02-23T14:36:48;2.92;;;1.45;;
11960;SDS011;6040;49.358;11.140;2024-02-23T14:39:15;2.78;;;1.27;;
11960;SDS011;6040;49.358;11.140;2024-02-23T14:41:42;3.75;;;1.27;;
11960;SDS011;6040;49.358;11.140;2024-02-23T14:44:09;2.15;;;1.30;;
11960;SDS011;6040;49.358;11.140;2024-02-23T14:46:36;2.50;;;1.30;;
11960;SDS011;6040;49.358;11.140;2024-02-23T14:49:04;1.47;;;1.27;;
11960;SDS011;6040;49.358;11.140;2024-02-23T14:51:31;2.00;;;1.33;;